Time;durP1;ratioP1;P1;durP2;ratioP2;P2;SDS_P1;SDS_P2;PMS_P1;PMS_P2;Temp;Humidity;BMP_temperature;BMP_pressure;BME280_temperature;BME280_humidity;BME280_pressure;Samples;Min_cycle;Max_cycle;Signal;HPM_P1;HPM_P2
2022/05/08 00:00:33;;;;;;;;;20.75;19.25;;;;;12.65;74.10;101014.28;5033547;28;45406;-80
2022/05/08 00:02:59;;;;;;;;;18.50;17.50;;;;;12.67;73.96;101021.38;5035543;28;45901;-75
2022/05/08 00:05:25;;;;;;;;;21.00;18.75;;;;;12.71;74.49;101028.47;5035195;28;45559;-80
2022/05/08 00:07:51;;;;;;;;;24.50;19.75;;;;;12.73;74.84;101028.50;5037921;28;45307;-76
2022/05/08 00:10:17;;;;;;;;;17.00;15.75;;;;;12.67;74.76;101017.84;5037968;28;45515;-78
2022/05/08 00:12:42;;;;;;;;;17.25;16.50;;;;;12.65;74.87;101015.19;5038106;28;45328;-80
2022/05/08 00:15:08;;;;;;;;;18.50;16.25;;;;;12.48;75.38;100991.13;5037549;28;45370;-74
2022/05/08 00:17:34;;;;;;;;;18.00;17.00;;;;;12.58;75.21;101009.75;5037814;28;45514;-79
2022/05/08 00:20:06;;;;;;;;;15.75;14.00;;;;;12.51;75.15;100990.31;5037729;28;45546;-78
2022/05/08 00:22:32;;;;;;;;;17.25;16.25;;;;;12.52;75.61;100998.22;5035627;28;45413;-81
2022/05/08 00:24:59;;;;;;;;;16.00;15.00;;;;;12.46;75.32;100982.31;5038003;28;45481;-74
2022/05/08 00:27:24;;;;;;;;;14.50;14.25;;;;;12.54;75.57;101004.38;5038048;28;45554;-75
2022/05/08 00:29:50;;;;;;;;;15.50;14.75;;;;;12.57;75.23;101010.56;5037685;28;45486;-76
2022/05/08 00:32:15;;;;;;;;;17.00;16.25;;;;;12.60;75.11;101005.44;5037943;28;45562;-73
2022/05/08 00:34:41;;;;;;;;;17.25;16.25;;;;;12.13;74.77;100916.72;5037420;28;45439;-74
2022/05/08 00:37:07;;;;;;;;;20.00;18.75;;;;;12.57;75.28;100995.72;5037485;28;45569;-74
2022/05/08 00:39:35;;;;;;;;;22.00;17.00;;;;;12.62;75.25;100998.50;5037621;28;45417;-74
2022/05/08 00:42:00;;;;;;;;;19.50;17.00;;;;;12.63;75.09;101001.13;5037794;28;45343;-74
2022/05/08 00:44:26;;;;;;;;;16.50;15.25;;;;;12.60;75.12;100990.59;5037490;28;45435;-77
2022/05/08 00:46:52;;;;;;;;;17.75;17.00;;;;;12.65;75.48;100988.09;5037484;28;45345;-74
2022/05/08 00:49:17;;;;;;;;;18.50;15.75;;;;;12.47;75.71;100967.47;5037322;28;45292;-75
2022/05/08 00:51:47;;;;;;;;;21.75;19.75;;;;;12.59;75.19;100991.41;5037472;28;45367;-74
2022/05/08 00:54:14;;;;;;;;;20.50;19.00;;;;;12.46;74.71;100977.06;5034870;28;45588;-74
2022/05/08 00:56:40;;;;;;;;;27.50;23.50;;;;;12.52;74.88;100982.50;5037082;28;45460;-74
2022/05/08 00:59:06;;;;;;;;;22.75;19.75;;;;;12.20;75.20;100934.41;5037226;28;45532;-74
2022/05/08 01:01:32;;;;;;;;;18.00;18.00;;;;;12.45;75.14;100964.81;5037289;28;45400;-74
2022/05/08 01:03:57;;;;;;;;;19.00;17.75;;;;;12.52;75.10;100974.63;5037280;28;45510;-74
2022/05/08 01:06:23;;;;;;;;;23.00;20.50;;;;;12.45;74.68;100961.31;5037529;28;45419;-73
2022/05/08 01:08:50;;;;;;;;;18.50;17.25;;;;;12.57;74.70;100976.50;5038150;28;45331;-74
2022/05/08 01:11:18;;;;;;;;;21.25;17.75;;;;;12.44;74.92;100944.69;5039350;28;45370;-74
2022/05/08 01:13:44;;;;;;;;;18.00;16.00;;;;;12.40;74.70;100945.47;5037803;28;45316;-74
2022/05/08 01:16:15;;;;;;;;;17.00;15.50;;;;;12.41;74.96;100957.69;5038634;28;45357;-74
2022/05/08 01:18:43;;;;;;;;;20.00;17.50;;;;;12.51;74.66;100970.25;5038063;28;45366;-74
2022/05/08 01:21:12;;;;;;;;;17.25;16.75;;;;;12.53;74.90;100980.75;5038738;28;45288;-74
2022/05/08 01:23:38;;;;;;;;;16.25;15.50;;;;;12.45;75.05;100971.78;5038282;28;46190;-74
2022/05/08 01:26:04;;;;;;;;;18.50;16.25;;;;;12.35;75.24;100973.25;5038462;28;45484;-74
2022/05/08 01:28:30;;;;;;;;;18.25;16.25;;;;;12.32;75.29;100974.06;5038870;28;45319;-74
2022/05/08 01:30:56;;;;;;;;;16.50;16.25;;;;;12.32;75.10;100971.44;5038732;28;45406;-74
2022/05/08 01:33:22;;;;;;;;;19.25;16.50;;;;;12.29;75.30;100957.34;5038157;28;45327;-74
2022/05/08 01:35:49;;;;;;;;;17.50;15.25;;;;;12.34;75.21;100966.25;5038267;28;45470;-74
2022/05/08 01:38:17;;;;;;;;;15.00;14.25;;;;;12.28;74.96;100963.44;5038421;28;45236;-74
2022/05/08 01:40:43;;;;;;;;;16.75;16.75;;;;;12.26;75.51;100962.50;5038470;28;45391;-74
2022/05/08 01:43:10;;;;;;;;;16.75;14.75;;;;;12.18;76.02;100953.53;5038022;28;45623;-74
2022/05/08 01:45:36;;;;;;;;;17.75;16.50;;;;;12.24;75.83;100964.19;5036858;28;45545;-74
2022/05/08 01:50:48;;;;;;;;;15.75;15.75;;;;;12.25;75.03;100956.34;5038112;28;45595;-74
2022/05/08 01:53:14;;;;;;;;;17.75;15.00;;;;;12.25;75.38;100960.72;5037790;28;45283;-74
2022/05/08 01:55:40;;;;;;;;;15.25;14.50;;;;;12.17;75.53;100946.50;5038050;28;45504;-74
2022/05/08 01:58:05;;;;;;;;;18.50;16.25;;;;;12.20;75.48;100951.84;5038150;28;45421;-74
2022/05/08 02:00:31;;;;;;;;;18.75;16.75;;;;;12.14;75.35;100950.81;5038334;28;45257;-74
2022/05/08 02:03:04;;;;;;;;;24.75;16.25;;;;;11.93;75.22;100923.97;5036735;28;45473;-74
2022/05/08 02:05:31;;;;;;;;;20.00;18.25;;;;;12.01;75.60;100953.91;5038022;28;45475;-74
2022/05/08 02:07:57;;;;;;;;;17.25;16.25;;;;;11.93;75.54;100948.41;5036588;28;45584;-74
2022/05/08 02:10:23;;;;;;;;;20.75;17.75;;;;;11.89;75.96;100948.28;5038178;28;45635;-74
2022/05/08 02:12:49;;;;;;;;;22.00;17.75;;;;;11.84;76.38;100944.63;5037706;28;45624;-74
2022/05/08 02:15:15;;;;;;;;;21.25;18.00;;;;;11.81;76.75;100948.00;5037616;28;45773;-74
2022/05/08 02:17:41;;;;;;;;;18.25;16.75;;;;;11.78;76.91;100947.03;5038026;28;45482;-73
2022/05/08 02:20:08;;;;;;;;;17.25;16.75;;;;;11.75;77.35;100948.69;5038124;28;45447;-74
2022/05/08 02:22:34;;;;;;;;;18.00;17.00;;;;;11.62;77.03;100925.63;5036665;28;47500;-74
2022/05/08 02:25:00;;;;;;;;;20.50;18.00;;;;;11.72;76.87;100938.16;5038001;28;45505;-74
2022/05/08 02:27:34;;;;;;;;;16.50;14.75;;;;;11.71;76.73;100945.94;5037715;28;45310;-74
2022/05/08 02:30:00;;;;;;;;;15.00;14.25;;;;;11.61;76.56;100931.69;5037462;28;45327;-74
2022/05/08 02:32:25;;;;;;;;;15.25;14.25;;;;;11.66;76.72;100943.19;5037396;28;46098;-74
2022/05/08 02:34:51;;;;;;;;;19.00;17.00;;;;;11.58;76.17;100934.22;5037712;28;45310;-74
2022/05/08 02:37:16;;;;;;;;;16.25;15.50;;;;;11.58;76.17;100942.06;5037593;28;45505;-73
2022/05/08 02:39:43;;;;;;;;;18.00;17.00;;;;;11.46;76.80;100924.25;5036287;28;45567;-74
2022/05/08 02:42:08;;;;;;;;;17.00;16.25;;;;;11.45;76.32;100926.81;5036091;28;45603;-74
2022/05/08 02:44:34;;;;;;;;;17.25;15.00;;;;;11.44;76.59;100930.25;5038095;28;45566;-76
2022/05/08 02:46:59;;;;;;;;;14.50;14.25;;;;;11.38;76.64;100928.34;5036219;28;45505;-74
2022/05/08 02:49:26;;;;;;;;;20.50;16.00;;;;;11.43;76.65;100950.28;5037707;28;45773;-74
2022/05/08 02:51:51;;;;;;;;;21.50;16.25;;;;;11.40;76.77;100937.13;5035886;28;45474;-74
2022/05/08 02:54:17;;;;;;;;;15.25;15.25;;;;;11.41;76.94;100927.53;5037095;28;45350;-74
2022/05/08 02:59:26;;;;;;;;;17.25;15.00;;;;;11.36;76.61;100937.88;5038047;28;45389;-74
2022/05/08 03:01:52;;;;;;;;;18.00;15.00;;;;;10.82;76.74;100848.88;5037426;28;45603;-74
2022/05/08 03:04:18;;;;;;;;;16.25;15.25;;;;;11.34;76.77;100940.44;5037319;28;45235;-74
2022/05/08 03:06:43;;;;;;;;;16.50;14.25;;;;;11.28;76.51;100928.84;5037394;28;45332;-74
2022/05/08 03:09:09;;;;;;;;;16.00;15.25;;;;;11.29;77.02;100936.75;5037288;28;45540;-74
2022/05/08 03:11:36;;;;;;;;;16.25;14.00;;;;;11.20;76.57;100931.25;5037300;28;45402;-73
2022/05/08 03:14:01;;;;;;;;;18.25;15.00;;;;;11.20;76.31;100933.84;5037482;28;45588;-74
2022/05/08 03:16:28;;;;;;;;;15.25;13.25;;;;;11.11;76.46;100928.31;5036299;28;45533;-74
2022/05/08 03:18:55;;;;;;;;;17.50;15.00;;;;;11.08;76.46;100925.56;5037293;28;45169;-74
2022/05/08 03:21:21;;;;;;;;;12.50;12.25;;;;;11.03;77.01;100917.56;5036621;28;45252;-74
2022/05/08 03:23:47;;;;;;;;;17.50;16.00;;;;;11.10;77.24;100929.13;5036804;28;45399;-74
2022/05/08 03:26:14;;;;;;;;;15.75;15.25;;;;;11.09;77.78;100932.59;5036880;28;45364;-73
2022/05/08 03:28:41;;;;;;;;;19.50;13.75;;;;;11.07;77.71;100932.53;5037312;28;45501;-74
2022/05/08 03:31:07;;;;;;;;;15.00;14.00;;;;;10.94;77.38;100912.03;5036991;28;46420;-74
2022/05/08 03:33:34;;;;;;;;;15.50;13.75;;;;;11.01;77.57;100921.00;5037418;28;45352;-74
2022/05/08 03:36:00;;;;;;;;;14.50;13.25;;;;;11.04;78.10;100921.06;5036925;28;45386;-74
2022/05/08 03:38:27;;;;;;;;;13.50;13.25;;;;;10.95;77.77;100914.69;5036963;28;45425;-73
2022/05/08 03:40:54;;;;;;;;;14.00;14.00;;;;;11.04;77.82;100928.91;5037963;28;45315;-74
2022/05/08 03:43:21;;;;;;;;;15.50;15.00;;;;;11.03;77.33;100932.38;5039311;28;45528;-74
2022/05/08 03:45:50;;;;;;;;;16.00;14.00;;;;;10.92;77.23;100914.63;5040966;28;45181;-75
2022/05/08 03:48:17;;;;;;;;;21.00;15.50;;;;;11.01;77.32;100926.22;5041013;28;45311;-74
2022/05/08 03:50:42;;;;;;;;;15.00;14.00;;;;;10.98;77.07;100924.38;5039673;28;46241;-74
2022/05/08 03:53:09;;;;;;;;;17.00;14.00;;;;;10.98;77.11;100924.38;5040372;28;45505;-75
2022/05/08 03:55:34;;;;;;;;;17.00;14.75;;;;;10.94;76.81;100915.56;5040462;28;45471;-74
2022/05/08 03:58:00;;;;;;;;;15.00;14.00;;;;;10.95;77.12;100919.94;5040619;28;45315;-75
2022/05/08 04:00:25;;;;;;;;;13.00;13.00;;;;;10.82;76.98;100898.53;5040139;28;45568;-74
2022/05/08 04:02:51;;;;;;;;;13.50;13.00;;;;;10.93;77.12;100926.81;5040341;28;45262;-74
2022/05/08 04:05:16;;;;;;;;;15.50;15.00;;;;;10.90;77.78;100921.50;5040524;28;45483;-74
2022/05/08 04:07:42;;;;;;;;;16.00;14.50;;;;;10.74;77.34;100893.97;5040710;28;45308;-74
2022/05/08 04:10:08;;;;;;;;;14.75;13.50;;;;;10.84;77.22;100926.53;5041167;28;46397;-74
2022/05/08 04:12:35;;;;;;;;;15.50;13.00;;;;;10.82;77.43;100916.84;5040443;28;45459;-74
2022/05/08 04:15:01;;;;;;;;;14.75;14.75;;;;;10.84;78.25;100921.31;5043763;28;45225;-73
2022/05/08 04:17:28;;;;;;;;;15.25;15.00;;;;;10.83;77.84;100918.63;5046517;28;45283;-75
2022/05/08 04:19:57;;;;;;;;;20.00;18.75;;;;;10.83;77.92;100924.75;5043642;28;46001;-74
2022/05/08 04:25:08;;;;;;;;;14.75;13.00;;;;;10.61;77.89;100890.84;5040848;28;45505;-74
2022/05/08 04:27:35;;;;;;;;;18.25;14.25;;;;;10.75;77.56;100914.00;5041055;28;45548;-74
2022/05/08 04:30:02;;;;;;;;;15.75;15.00;;;;;10.76;77.48;100917.50;5040107;28;45512;-74
2022/05/08 04:32:28;;;;;;;;;13.00;13.00;;;;;10.66;76.83;100908.44;5040575;28;45488;-73
2022/05/08 04:34:53;;;;;;;;;12.75;12.00;;;;;10.73;77.10;100927.88;5040613;28;45357;-74
2022/05/08 04:37:19;;;;;;;;;14.75;12.25;;;;;10.60;77.54;100908.22;5041316;28;45496;-75
2022/05/08 04:39:44;;;;;;;;;14.50;14.25;;;;;10.69;77.32;100925.97;5045654;28;45335;-74
2022/05/08 04:42:10;;;;;;;;;14.75;13.75;;;;;10.72;76.81;100936.53;5052545;28;45331;-74
2022/05/08 04:44:35;;;;;;;;;13.75;13.00;;;;;10.66;76.88;100933.69;5051997;28;45364;-74
2022/05/08 04:47:01;;;;;;;;;16.00;13.50;;;;;10.64;77.38;100935.38;5049033;28;45266;-74
2022/05/08 04:49:27;;;;;;;;;18.00;15.00;;;;;10.54;77.61;100919.38;5041935;28;46503;-74
2022/05/08 04:51:53;;;;;;;;;17.50;15.75;;;;;10.60;77.56;100923.03;5040051;28;45235;-74
2022/05/08 04:54:18;;;;;;;;;16.50;16.25;;;;;10.69;77.61;100925.97;5038590;28;45333;-74
2022/05/08 04:56:44;;;;;;;;;17.75;14.25;;;;;10.70;77.64;100928.66;5041414;28;45269;-74
2022/05/08 04:59:09;;;;;;;;;18.00;15.50;;;;;10.81;77.17;100933.38;5043174;28;45308;-73
2022/05/08 05:01:35;;;;;;;;;14.50;13.00;;;;;10.84;76.82;100929.16;5039823;28;45467;-73
2022/05/08 05:04:01;;;;;;;;;19.25;15.75;;;;;10.79;75.97;100922.84;5038583;28;45423;-74
2022/05/08 05:06:27;;;;;;;;;15.00;13.50;;;;;10.86;75.63;100923.94;5039467;28;45260;-77
2022/05/08 05:08:52;;;;;;;;;16.00;13.25;;;;;10.90;76.08;100933.66;5040572;28;46095;-73
2022/05/08 05:11:19;;;;;;;;;15.50;14.00;;;;;10.95;75.91;100934.72;5039337;28;45498;-74
2022/05/08 05:13:44;;;;;;;;;16.50;15.00;;;;;10.81;75.60;100892.44;5040995;28;45261;-73
2022/05/08 05:16:10;;;;;;;;;14.25;14.25;;;;;11.15;74.99;100938.03;5038685;28;45534;-74
2022/05/08 05:18:35;;;;;;;;;14.25;13.25;;;;;11.12;74.52;100920.50;5039484;28;45608;-73
2022/05/08 05:21:01;;;;;;;;;16.75;15.50;;;;;11.33;74.50;100942.97;5039757;28;45538;-74
2022/05/08 05:23:26;;;;;;;;;17.00;14.50;;;;;11.39;74.41;100931.84;5038552;28;45533;-73
2022/05/08 05:25:52;;;;;;;;;17.25;15.25;;;;;11.56;75.00;100948.97;5040304;28;45181;-74
2022/05/08 05:28:18;;;;;;;;;17.00;15.75;;;;;11.50;74.38;100926.13;5041018;28;45381;-73
2022/05/08 05:30:43;;;;;;;;;15.50;14.50;;;;;11.78;73.87;100952.25;5040707;28;45513;-75
2022/05/08 05:33:15;;;;;;;;;13.75;13.50;;;;;11.53;73.67;100894.81;5038103;28;45914;-73
2022/05/08 05:35:41;;;;;;;;;17.25;15.75;;;;;12.04;73.15;100956.63;5038502;28;45450;-74
2022/05/08 05:38:07;;;;;;;;;15.50;14.75;;;;;12.13;72.81;100948.16;5037917;28;45630;-74
2022/05/08 05:40:32;;;;;;;;;16.75;15.25;;;;;12.22;72.59;100952.78;5039766;28;45588;-74
2022/05/08 05:42:58;;;;;;;;;17.25;16.00;;;;;12.29;72.46;100955.59;5042023;28;45555;-74
2022/05/08 05:45:24;;;;;;;;;16.25;15.00;;;;;12.36;72.18;100947.97;5039962;28;45418;-74
2022/05/08 05:47:50;;;;;;;;;18.00;16.50;;;;;12.49;72.07;100956.22;5041702;28;45818;-74
2022/05/08 05:50:21;;;;;;;;;15.00;14.50;;;;;12.54;71.59;100943.22;5040840;28;45281;-75
2022/05/08 05:52:48;;;;;;;;;19.50;14.75;;;;;12.72;71.05;100948.09;5037405;28;45281;-74
2022/05/08 05:55:13;;;;;;;;;17.25;15.00;;;;;12.82;70.40;100937.03;5040398;28;45394;-80
2022/05/08 05:57:39;;;;;;;;;16.50;15.75;;;;;12.94;70.31;100942.59;5039950;28;45465;-74
2022/05/08 06:00:09;;;;;;;;;16.75;15.50;;;;;13.07;69.42;100962.16;5039437;28;45450;-74
2022/05/08 06:02:34;;;;;;;;;13.50;11.25;;;;;13.14;68.67;100957.97;5038778;28;45520;-74
2022/05/08 06:05:00;;;;;;;;;16.75;14.75;;;;;13.16;69.17;100948.41;5040447;28;45541;-74
2022/05/08 06:07:26;;;;;;;;;15.25;13.25;;;;;13.41;68.67;100964.78;5043783;28;45363;-74
2022/05/08 06:09:51;;;;;;;;;16.00;15.75;;;;;13.55;68.49;100965.13;5042512;28;45312;-74
2022/05/08 06:12:17;;;;;;;;;17.25;16.00;;;;;13.71;68.04;100968.19;5040012;28;45362;-74
2022/05/08 06:14:42;;;;;;;;;16.75;14.50;;;;;15.01;66.41;100966.56;5039016;28;45262;-74
2022/05/08 06:17:08;;;;;;;;;15.00;13.00;;;;;17.53;59.68;100955.00;5037526;28;46572;-74
2022/05/08 06:19:33;;;;;;;;;17.67;16.33;;;;;19.66;54.49;100960.25;5037632;28;45352;-74
2022/05/08 06:22:00;;;;;;;;;14.00;13.33;;;;;21.20;49.89;100936.66;5037784;28;45331;-74
2022/05/08 06:24:25;;;;;;;;;14.67;11.33;;;;;22.73;47.30;100951.09;5037952;28;45411;-74
2022/05/08 06:26:51;;;;;;;;;9.33;8.67;;;;;23.84;44.58;100942.25;5037515;28;45375;-74
2022/05/08 06:29:17;;;;;;;;;11.00;10.00;;;;;24.94;42.14;100949.75;5038003;28;45481;-75
2022/05/08 06:31:43;;;;;;;;;11.33;11.00;;;;;25.93;39.50;100929.50;5037794;28;45545;-75
2022/05/08 06:34:08;;;;;;;;;11.33;10.33;;;;;27.02;37.51;100935.22;5037819;28;45438;-75
2022/05/08 06:36:34;;;;;;;;;10.00;9.00;;;;;28.00;35.67;100944.50;5041904;28;45324;-75
2022/05/08 06:39:00;;;;;;;;;12.33;12.00;;;;;28.92;33.86;100939.19;5038603;28;45442;-76
2022/05/08 06:41:27;;;;;;;;;12.67;12.00;;;;;29.74;33.25;100944.81;5039021;28;45440;-76
2022/05/08 06:43:54;;;;;;;;;10.00;10.00;;;;;30.48;31.54;100941.50;5039164;28;45174;-76
2022/05/08 06:46:20;;;;;;;;;12.00;11.33;;;;;31.27;31.42;100943.97;5038341;28;45545;-76
2022/05/08 06:48:47;;;;;;;;;11.00;10.00;;;;;31.92;29.85;100938.84;5037943;28;45312;-77
2022/05/08 06:51:13;;;;;;;;;11.00;10.33;;;;;32.57;29.03;100942.63;5037320;28;45378;-77
2022/05/08 06:53:40;;;;;;;;;9.00;9.00;;;;;33.11;27.85;100937.78;5036574;28;46008;-75
2022/05/08 06:56:05;;;;;;;;;8.33;8.33;;;;;33.40;27.44;100937.88;5036380;28;46130;-78
2022/05/08 07:01:34;;;;;;;;;9.00;9.00;;;;;33.81;26.99;100948.09;5034192;28;45818;-79
2022/05/08 07:01:34;;;;;;;;;8.00;8.00;;;;;34.49;25.87;100950.19;5035639;28;45651;-78
2022/05/08 07:04:02;;;;;;;;;11.67;11.67;;;;;35.08;25.83;100946.38;5039436;28;45754;-77
2022/05/08 07:06:27;;;;;;;;;7.00;7.00;;;;;35.62;24.98;100949.97;5036843;28;45606;-76
2022/05/08 07:08:53;;;;;;;;;9.33;9.33;;;;;36.13;24.60;100945.56;5036530;28;45407;-77
2022/05/08 07:11:18;;;;;;;;;9.33;9.00;;;;;36.62;24.83;100955.66;5036363;28;45486;-78
2022/05/08 07:13:44;;;;;;;;;9.33;9.33;;;;;36.50;23.19;100915.72;5037061;28;45466;-81
2022/05/08 07:16:09;;;;;;;;;24.00;23.67;;;;;37.16;22.82;100954.44;5034935;28;45605;-78
2022/05/08 07:18:35;;;;;;;;;16.33;14.33;;;;;37.55;22.66;100958.69;5036281;28;45559;-79
2022/05/08 07:21:00;;;;;;;;;11.00;11.00;;;;;37.60;22.75;100918.34;5034789;28;45514;-81
2022/05/08 07:23:26;;;;;;;;;11.67;11.00;;;;;38.27;22.00;100968.53;5036367;28;45545;-81
2022/05/08 07:25:51;;;;;;;;;10.00;9.33;;;;;38.24;20.82;100966.06;5035898;28;45539;-83
2022/05/08 07:28:17;;;;;;;;;9.00;9.00;;;;;37.72;21.83;100971.03;5033479;28;45596;-84
2022/05/08 07:30:43;;;;;;;;;11.00;10.67;;;;;35.10;24.53;100949.88;5034197;28;46472;-82
2022/05/08 07:33:08;;;;;;;;;11.00;10.67;;;;;33.27;27.66;100973.81;5042120;28;45406;-79
2022/05/08 07:38:21;;;;;;;;;11.67;10.00;;;;;33.33;27.37;100977.16;5055891;28;45499;-85
2022/05/08 07:40:48;;;;;;;;;11.00;10.00;;;;;33.23;27.79;100980.38;5056550;27;45297;-81
2022/05/08 07:43:17;;;;;;;;;11.67;10.67;;;;;32.64;27.39;100952.16;5057219;28;45313;-91
2022/05/08 07:45:44;;;;;;;;;10.00;10.00;;;;;33.24;26.81;100933.38;5044244;28;46647;-81
2022/05/08 07:48:09;;;;;;;;;10.67;10.67;;;;;34.40;25.57;100967.03;5035999;28;45966;-80
2022/05/08 07:50:35;;;;;;;;;11.00;11.00;;;;;36.23;23.68;100982.91;5005094;27;45571;-80
2022/05/08 07:53:01;;;;;;;;;10.00;9.67;;;;;37.22;22.54;100933.03;5055260;28;45965;-83
2022/05/08 07:55:26;;;;;;;;;10.67;9.67;;;;;38.84;21.10;100988.53;5054157;28;45425;-81
2022/05/08 07:57:52;;;;;;;;;10.67;9.67;;;;;39.62;20.04;100988.47;5055495;28;45770;-78
2022/05/08 08:00:17;;;;;;;;;10.00;9.00;;;;;39.85;19.48;100929.00;5054651;28;45410;-81
2022/05/08 08:02:43;;;;;;;;;8.00;8.00;;;;;40.77;18.80;100981.09;5054142;28;45568;-82
2022/05/08 08:05:09;;;;;;;;;9.33;9.33;;;;;41.30;17.25;100972.53;5054968;28;45740;-84
2022/05/08 08:07:36;;;;;;;;;9.00;8.33;;;;;41.52;17.08;100929.38;5057040;28;45763;-84
2022/05/08 08:10:03;;;;;;;;;8.00;8.00;;;;;42.20;17.30;100984.16;5055727;28;45337;-81
2022/05/08 08:12:30;;;;;;;;;8.00;8.00;;;;;42.22;16.86;100940.06;5054906;28;45417;-86
2022/05/08 08:14:56;;;;;;;;;7.00;6.00;;;;;42.80;16.81;100960.88;5055458;28;46253;-85
2022/05/08 08:17:22;;;;;;;;;10.00;8.67;;;;;43.12;16.40;100930.19;5059825;28;45546;-86
2022/05/08 08:19:48;;;;;;;;;9.00;8.33;;;;;43.67;16.02;100965.78;5060092;28;45448;-90
2022/05/08 08:22:14;;;;;;;;;11.67;10.67;;;;;44.05;16.26;100960.00;5055641;28;45405;-82
2022/05/08 08:24:40;;;;;;;;;7.67;7.67;;;;;44.33;15.87;100965.34;5055769;28;45435;-87
2022/05/08 08:27:07;;;;;;;;;9.00;9.00;;;;;44.47;15.87;100942.66;5052998;28;45516;-81
2022/05/08 08:29:33;;;;;;;;;8.33;8.00;;;;;44.62;14.94;100918.16;5058908;28;45491;-82
2022/05/08 08:31:59;;;;;;;;;8.33;8.33;;;;;43.61;15.83;100933.34;5059581;28;45425;-80
2022/05/08 08:34:26;;;;;;;;;9.00;9.00;;;;;42.86;17.25;100946.59;5058346;28;46049;-82
2022/05/08 08:36:52;;;;;;;;;6.00;6.00;;;;;44.00;15.63;100963.25;5058726;28;45819;-81
2022/05/08 08:39:18;;;;;;;;;6.00;6.00;;;;;43.78;15.41;100961.06;5074483;28;45322;-82
2022/05/08 08:41:53;;;;;;;;;8.00;7.33;;;;;43.93;15.98;100959.41;5058741;28;45398;-83
2022/05/08 08:49:54;;;;;;;;;9.00;8.67;;;;;45.29;14.72;100962.25;5058109;28;45434;-79
2022/05/08 08:52:26;;;;;;;;;8.00;6.00;;;;;45.00;15.02;100966.31;5058538;28;45653;-82
2022/05/08 08:54:51;;;;;;;;;6.67;6.33;;;;;45.37;14.28;100961.41;5058507;28;45453;-79
2022/05/08 08:57:17;;;;;;;;;6.67;6.67;;;;;45.62;14.23;100959.47;5059387;28;45795;-80
2022/05/08 08:59:43;;;;;;;;;5.00;5.00;;;;;45.96;13.79;100945.50;5059577;28;45493;-82
2022/05/08 09:02:17;;;;;;;;;7.00;6.00;;;;;46.19;13.59;100953.06;5058717;28;45358;-83
2022/05/08 09:04:47;;;;;;;;;8.00;7.00;;;;;46.21;14.07;100946.31;5059412;28;45528;-82
2022/05/08 09:07:39;;;;;;;;;6.67;6.67;;;;;43.57;15.91;100953.97;5060217;28;45438;-81
2022/05/08 09:10:09;;;;;;;;;8.00;7.67;;;;;40.47;18.97;100955.44;5058075;28;45426;-83
2022/05/08 09:12:36;;;;;;;;;9.00;7.00;;;;;38.33;20.18;100956.28;5058013;28;45423;-82
2022/05/08 09:15:24;;;;;;;;;8.67;8.67;;;;;36.63;22.13;100962.84;5058572;28;47566;-82
2022/05/08 09:17:54;;;;;;;;;8.67;8.00;;;;;35.31;23.31;100925.88;5058150;28;45342;-81
2022/05/08 09:20:26;;;;;;;;;7.00;7.00;;;;;36.34;22.57;100964.97;5058734;28;45417;-81
2022/05/08 09:23:09;;;;;;;;;6.33;6.33;;;;;38.98;19.45;100960.09;5057442;28;45691;-81
2022/05/08 09:25:54;;;;;;;;;7.33;7.33;;;;;40.63;18.51;100943.09;5037575;28;45679;-81
2022/05/08 09:28:22;;;;;;;;;7.00;7.00;;;;;41.28;18.21;100954.50;5048599;28;45442;-80
2022/05/08 09:30:57;;;;;;;;;8.00;8.00;;;;;41.85;17.06;100946.38;5058284;28;45386;-80
2022/05/08 09:33:31;;;;;;;;;7.33;7.33;;;;;42.26;16.43;100923.16;5060903;28;45675;-80
2022/05/08 09:35:58;;;;;;;;;7.67;7.33;;;;;39.88;18.28;100934.25;5057180;28;45489;-80
2022/05/08 09:38:46;;;;;;;;;9.00;8.67;;;;;39.57;19.39;100945.97;5056750;28;45453;-80
2022/05/08 09:41:14;;;;;;;;;10.00;9.00;;;;;37.31;20.65;100944.25;5057641;28;45430;-80
2022/05/08 09:43:41;;;;;;;;;9.00;7.67;;;;;36.10;21.81;100933.06;5057543;28;45512;-80
2022/05/08 09:46:08;;;;;;;;;6.33;6.33;;;;;36.03;22.69;100956.22;5056967;28;45457;-80
2022/05/08 09:48:34;;;;;;;;;6.33;6.33;;;;;35.90;22.64;100947.22;5055686;28;45812;-80
2022/05/08 09:51:10;;;;;;;;;8.00;7.33;;;;;35.42;23.29;100934.16;5056419;28;45768;-81
2022/05/08 09:53:38;;;;;;;;;7.00;7.00;;;;;35.66;23.02;100937.06;5056789;28;45459;-80
2022/05/08 09:56:06;;;;;;;;;8.00;8.00;;;;;36.22;22.97;100890.53;5057040;28;46334;-80
2022/05/08 09:58:33;;;;;;;;;11.33;8.67;;;;;38.33;21.06;100945.38;5062162;28;45457;-78
2022/05/08 10:01:01;;;;;;;;;8.00;7.00;;;;;36.65;21.91;100947.31;5066557;28;45374;-79
2022/05/08 10:03:29;;;;;;;;;8.33;8.33;;;;;36.49;21.88;100952.97;5063343;28;45369;-80
2022/05/08 10:05:55;;;;;;;;;7.00;6.33;;;;;38.31;20.10;100920.06;5062471;28;46118;-79
2022/05/08 10:08:28;;;;;;;;;8.33;8.00;;;;;39.82;18.71;100937.50;5054863;28;45840;-80
2022/05/08 10:13:53;;;;;;;;;7.00;6.00;;;;;39.84;18.85;100950.03;5057253;28;45370;-80
2022/05/08 10:16:55;;;;;;;;;7.33;7.33;;;;;38.52;20.18;100959.28;5056313;28;46357;-81
2022/05/08 10:19:27;;;;;;;;;7.33;6.67;;;;;39.00;19.00;100944.47;5056730;28;45655;-81
2022/05/08 10:21:55;;;;;;;;;6.00;6.00;;;;;39.85;19.32;100942.69;5057356;28;45958;-80
2022/05/08 10:24:30;;;;;;;;;8.00;8.00;;;;;39.67;19.31;100874.94;5057127;28;45405;-81
2022/05/08 10:27:19;;;;;;;;;6.67;6.67;;;;;38.96;19.85;100949.28;5057090;28;46745;-80
2022/05/08 10:29:51;;;;;;;;;6.00;6.00;;;;;36.89;21.62;100950.06;5060864;28;45381;-81
2022/05/08 10:32:32;;;;;;;;;6.33;6.33;;;;;36.33;22.58;100944.16;5058814;28;45374;-80
2022/05/08 10:35:18;;;;;;;;;7.67;7.33;;;;;37.96;20.96;100946.44;5055850;28;45546;-80
2022/05/08 10:37:49;;;;;;;;;7.00;7.00;;;;;37.34;21.10;100939.41;5055122;28;47782;-81
2022/05/08 10:40:24;;;;;;;;;5.67;5.67;;;;;38.02;20.58;100945.03;5056756;28;45508;-81
2022/05/08 10:43:01;;;;;;;;;8.00;7.33;;;;;38.70;20.46;100928.72;5056391;28;45405;-81
2022/05/08 10:45:32;;;;;;;;;9.33;8.00;;;;;38.17;21.06;100932.94;5056459;28;45358;-79
2022/05/08 10:48:08;;;;;;;;;7.33;7.00;;;;;36.80;22.03;100909.91;5054830;28;46768;-80
2022/05/08 10:50:38;;;;;;;;;6.33;6.00;;;;;35.58;23.39;100928.56;5053963;28;45358;-81
2022/05/08 10:53:04;;;;;;;;;7.00;6.33;;;;;36.22;22.65;100912.31;5056832;28;45358;-80
2022/05/08 10:55:29;;;;;;;;;7.67;6.67;;;;;36.67;21.29;100909.97;5055091;28;45397;-80
2022/05/08 10:57:55;;;;;;;;;5.33;5.00;;;;;37.30;21.46;100921.53;5056841;28;45358;-81
2022/05/08 11:00:30;;;;;;;;;6.33;6.33;;;;;36.18;22.33;100899.91;5054433;28;45486;-80
2022/05/08 11:03:00;;;;;;;;;6.00;5.67;;;;;36.74;22.17;100918.53;5056284;28;45501;-80
2022/05/08 11:05:37;;;;;;;;;6.00;6.00;;;;;35.70;23.18;100916.00;5056314;28;45509;-80
2022/05/08 11:08:10;;;;;;;;;20.00;19.67;;;;;33.81;24.63;100883.06;5053960;28;46331;-79
2022/05/08 11:10:38;;;;;;;;;6.00;5.67;;;;;33.63;25.21;100923.88;5072399;28;45451;-77
2022/05/08 11:13:11;;;;;;;;;5.00;5.00;;;;;33.11;25.47;100917.94;5072285;28;45447;-78
2022/05/08 11:15:48;;;;;;;;;7.00;6.33;;;;;32.32;26.02;100926.88;5055645;28;45624;-78
2022/05/08 11:18:15;;;;;;;;;5.00;5.00;;;;;31.48;28.12;100920.44;5056201;28;46365;-79
2022/05/08 11:21:08;;;;;;;;;6.00;6.00;;;;;30.55;28.62;100901.63;5056084;28;45545;-78
2022/05/08 11:23:35;;;;;;;;;4.00;4.00;;;;;30.08;29.16;100899.28;5057295;28;45341;-79
2022/05/08 11:26:05;;;;;;;;;7.00;6.33;;;;;29.71;30.50;100923.38;5055737;27;45420;-78
2022/05/08 11:28:32;;;;;;;;;7.00;7.00;;;;;29.52;30.64;100922.38;5055581;28;45459;-78
2022/05/08 11:30:59;;;;;;;;;8.67;7.67;;;;;29.29;31.15;100889.28;5057030;28;45476;-79
2022/05/08 11:36:28;;;;;;;;;7.00;6.67;;;;;29.26;32.52;100907.38;5056908;28;45436;-79
2022/05/08 11:39:19;;;;;;;;;7.33;7.00;;;;;28.71;31.87;100851.31;5054733;28;46941;-79